CFB Cold Lake


Codes: CYOD/YOD
Name: CFB Cold Lake
City: Cold Lake
Country: Canada
Elevation: 1775 ft.
Wikipedia:

Photos at CFB Cold Lake


   Photos courtesy of SpottingLog. You can add your own sightings and photos by signing up for a free trial today.



No photos found.

Weather at CFB Cold Lake


Time (UTC)DescriptionTempratureWindCloud coverageVisibilityPressureHumidity
25-Jun-2024 15:00Overcast Clouds11°C9 mph, N100%10000m1014hPa93%
25-Jun-2024 18:00Overcast Clouds14°C4 mph, NE98%10000m1015hPa70%
25-Jun-2024 21:00Overcast Clouds14°C2 mph, NW90%10000m1017hPa75%
26-Jun-2024 00:00Light Rain16°C4 mph, NW91%10000m1017hPa69%
26-Jun-2024 03:00Broken Clouds15°C0 mph, SW65%10000m1017hPa67%
26-Jun-2024 06:00Broken Clouds10°C2 mph, W60%10000m1018hPa78%
26-Jun-2024 09:00Clear Sky8°C2 mph, W8%10000m1019hPa86%
26-Jun-2024 12:00Scattered Clouds9°C0 mph, SW45%10000m1018hPa86%
26-Jun-2024 15:00Overcast Clouds13°C2 mph, E100%10000m1017hPa73%
26-Jun-2024 18:00Overcast Clouds16°C4 mph, E100%10000m1015hPa64%
26-Jun-2024 21:00Overcast Clouds18°C4 mph, E99%10000m1013hPa59%
27-Jun-2024 00:00Light Rain18°C4 mph, SE98%10000m1011hPa65%
27-Jun-2024 03:00Light Rain15°C4 mph, SE100%10000m1010hPa83%
27-Jun-2024 06:00Light Rain13°C7 mph, E100%10000m1010hPa90%
27-Jun-2024 09:00Overcast Clouds12°C7 mph, E100%10000m1009hPa95%
27-Jun-2024 12:00Overcast Clouds11°C9 mph, NE100%10000m1008hPa95%
27-Jun-2024 15:00Overcast Clouds13°C9 mph, NE100%10000m1008hPa78%
27-Jun-2024 18:00Overcast Clouds17°C11 mph, E99%10000m1007hPa54%
27-Jun-2024 21:00Overcast Clouds18°C9 mph, NE98%10000m1007hPa51%
28-Jun-2024 00:00Overcast Clouds17°C4 mph, E99%10000m1007hPa61%
28-Jun-2024 03:00Overcast Clouds14°C2 mph, NE100%10000m1009hPa65%
28-Jun-2024 06:00Overcast Clouds11°C9 mph, NE100%10000m1010hPa64%
28-Jun-2024 09:00Overcast Clouds9°C9 mph, NE88%10000m1012hPa70%
28-Jun-2024 12:00Broken Clouds8°C7 mph, NE65%10000m1014hPa79%
28-Jun-2024 15:00Few Clouds13°C7 mph, E18%10000m1015hPa65%
28-Jun-2024 18:00Clear Sky16°C4 mph, E10%10000m1015hPa52%
28-Jun-2024 21:00Clear Sky18°C4 mph, SE0%10000m1014hPa46%
29-Jun-2024 00:00Few Clouds18°C0 mph, S11%10000m1015hPa48%
29-Jun-2024 03:00Broken Clouds14°C7 mph, W53%10000m1015hPa75%
29-Jun-2024 06:00Broken Clouds10°C4 mph, SW65%10000m1017hPa80%
29-Jun-2024 09:00Overcast Clouds9°C2 mph, SW100%10000m1017hPa81%
29-Jun-2024 12:00Broken Clouds9°C4 mph, SW77%10000m1018hPa85%
29-Jun-2024 15:00Clear Sky15°C4 mph, S5%10000m1018hPa69%
29-Jun-2024 18:00Clear Sky18°C7 mph, S4%10000m1017hPa53%
29-Jun-2024 21:00Clear Sky20°C9 mph, S5%10000m1016hPa49%
30-Jun-2024 00:00Few Clouds20°C7 mph, S22%10000m1015hPa54%
30-Jun-2024 03:00Clear Sky16°C7 mph, S1%10000m1015hPa76%
30-Jun-2024 06:00Clear Sky11°C7 mph, SE1%10000m1015hPa83%
30-Jun-2024 09:00Clear Sky10°C7 mph, SE0%10000m1015hPa80%
30-Jun-2024 12:00Clear Sky9°C7 mph, E0%10000m1014hPa88%